Time;durP1;ratioP1;P1;durP2;ratioP2;P2;SDS_P1;SDS_P2;PMS_P1;PMS_P2;Temp;Humidity;BMP_temperature;BMP_pressure;BME280_temperature;BME280_humidity;BME280_pressure;Samples;Min_cycle;Max_cycle;Signal;HPM_P1;HPM_P2
2023/10/20 00:04:27;;;;;;;;;;;;;;;10.37;100.00;93202.09;10510500;28;2689;-79
2023/10/20 00:09:30;;;;;;;;;;;;;;;10.27;100.00;93179.94;10511736;28;2665;-78
2023/10/20 00:14:33;;;;;;;;;;;;;;;10.30;100.00;93170.44;10511567;28;2662;-78
2023/10/20 00:19:35;;;;;;;;;;;;;;;10.29;100.00;93183.06;10508650;28;2718;-78
2023/10/20 00:24:38;;;;;;;;;;;;;;;10.39;100.00;93183.75;10511476;28;2914;-78
2023/10/20 00:29:40;;;;;;;;;;;;;;;10.37;100.00;93176.06;10509638;28;2522;-77
2023/10/20 00:34:43;;;;;;;;;;;;;;;10.39;100.00;93167.66;10513978;28;2557;-78
2023/10/20 00:39:45;;;;;;;;;;;;;;;10.37;100.00;93143.03;10492518;28;2582;-80
2023/10/20 00:44:48;;;;;;;;;;;;;;;10.36;100.00;93130.72;10507980;28;2594;-78
2023/10/20 00:49:50;;;;;;;;;;;;;;;10.29;100.00;93099.84;10483721;28;2607;-79
2023/10/20 00:54:53;;;;;;;;;;;;;;;10.23;100.00;93105.78;10510955;28;3017;-80
2023/10/20 00:59:55;;;;;;;;;;;;;;;10.27;100.00;93091.34;10506156;28;2811;-79
2023/10/20 01:04:58;;;;;;;;;;;;;;;10.35;100.00;93095.03;10505664;28;2561;-79
2023/10/20 01:10:00;;;;;;;;;;;;;;;10.42;100.00;93089.09;10507239;28;4630;-78
2023/10/20 01:15:05;;;;;;;;;;;;;;;10.39;100.00;93073.66;10510180;28;2583;-79
2023/10/20 01:20:07;;;;;;;;;;;;;;;10.46;100.00;93073.88;10511421;28;2728;-78
2023/10/20 01:25:10;;;;;;;;;;;;;;;10.49;100.00;93065.13;10511261;28;2690;-78
2023/10/20 01:30:13;;;;;;;;;;;;;;;10.41;100.00;93034.59;10506285;28;2761;-78
2023/10/20 01:35:16;;;;;;;;;;;;;;;10.31;100.00;93032.41;10506196;28;2745;-77
2023/10/20 01:40:19;;;;;;;;;;;;;;;10.29;100.00;93011.25;10507242;28;2593;-76
2023/10/20 01:45:22;;;;;;;;;;;;;;;10.23;100.00;93009.13;10504469;28;2583;-78
2023/10/20 01:50:24;;;;;;;;;;;;;;;10.25;100.00;92996.16;10510007;28;2808;-78
2023/10/20 01:55:28;;;;;;;;;;;;;;;10.26;100.00;92981.63;10507873;28;2600;-78
2023/10/20 02:00:31;;;;;;;;;;;;;;;10.32;100.00;92992.91;10507301;28;2711;-78
2023/10/20 02:05:33;;;;;;;;;;;;;;;10.36;100.00;92991.88;10511508;28;2773;-79
2023/10/20 02:10:36;;;;;;;;;;;;;;;10.26;100.00;92977.03;10509043;28;2610;-78
2023/10/20 02:15:38;;;;;;;;;;;;;;;10.25;100.00;92964.72;10512760;28;2687;-79
2023/10/20 02:20:41;;;;;;;;;;;;;;;10.16;100.00;92955.97;10509724;28;2601;-78
2023/10/20 02:25:43;;;;;;;;;;;;;;;10.08;100.00;92932.75;10502656;28;2840;-79
2023/10/20 02:30:46;;;;;;;;;;;;;;;10.10;100.00;92919.75;10514668;28;2552;-78
2023/10/20 02:35:48;;;;;;;;;;;;;;;9.94;100.00;92889.41;10515504;28;2817;-78
2023/10/20 02:40:51;;;;;;;;;;;;;;;9.83;100.00;92905.16;10517689;28;2573;-78
2023/10/20 02:45:53;;;;;;;;;;;;;;;9.90;100.00;92899.22;10508071;28;2899;-78
2023/10/20 02:50:56;;;;;;;;;;;;;;;9.95;100.00;92896.31;10512410;28;2587;-79
2023/10/20 02:55:58;;;;;;;;;;;;;;;9.87;100.00;92878.47;10511743;28;2974;-78
2023/10/20 03:01:02;;;;;;;;;;;;;;;9.96;100.00;92861.09;10507250;28;2860;-79
2023/10/20 03:06:06;;;;;;;;;;;;;;;9.86;100.00;92850.03;10512047;28;2637;-77
2023/10/20 03:11:09;;;;;;;;;;;;;;;9.86;100.00;92828.59;10489610;28;2776;-78
2023/10/20 03:16:12;;;;;;;;;;;;;;;9.84;100.00;92820.09;10516391;28;2577;-77
2023/10/20 03:21:14;;;;;;;;;;;;;;;9.84;100.00;92812.84;10511198;28;2980;-79
2023/10/20 03:26:17;;;;;;;;;;;;;;;9.85;100.00;92818.97;10512863;28;2558;-78
2023/10/20 03:31:20;;;;;;;;;;;;;;;9.82;100.00;92817.78;10515167;28;2586;-78
2023/10/20 03:36:22;;;;;;;;;;;;;;;9.90;100.00;92805.31;10512104;28;2602;-79
2023/10/20 03:41:25;;;;;;;;;;;;;;;9.87;100.00;92798.75;10526389;28;2660;-80
2023/10/20 03:46:30;;;;;;;;;;;;;;;9.86;100.00;92802.56;10509258;28;2573;-77
2023/10/20 03:51:35;;;;;;;;;;;;;;;9.78;100.00;92802.69;10511023;28;2807;-78
2023/10/20 03:56:37;;;;;;;;;;;;;;;9.74;100.00;92789.19;10493084;28;2673;-78
2023/10/20 04:01:40;;;;;;;;;;;;;;;9.72;100.00;92770.72;10487488;28;2596;-79
2023/10/20 04:06:44;;;;;;;;;;;;;;;9.68;100.00;92748.41;10513158;28;3092;-79
2023/10/20 04:11:46;;;;;;;;;;;;;;;9.63;100.00;92727.19;10508678;28;4740;-79
2023/10/20 04:16:49;;;;;;;;;;;;;;;9.58;100.00;92697.94;10510134;28;2593;-78
2023/10/20 04:21:54;;;;;;;;;;;;;;;9.62;100.00;92714.91;10506705;28;2631;-78
2023/10/20 04:26:57;;;;;;;;;;;;;;;9.64;100.00;92701.16;10512484;28;2616;-79
2023/10/20 04:43:28;;;;;;;;;;;;;;;9.69;100.00;92682.91;10514349;28;2606;-79
2023/10/20 04:49:00;;;;;;;;;;;;;;;9.72;100.00;92662.66;10511035;28;2603;-78
2023/10/20 04:53:54;;;;;;;;;;;;;;;9.72;100.00;92639.31;10510898;28;2850;-79
2023/10/20 04:58:59;;;;;;;;;;;;;;;9.65;100.00;92620.34;10506148;28;2734;-80
2023/10/20 05:04:12;;;;;;;;;;;;;;;9.64;100.00;92608.06;10510920;28;2796;-77
2023/10/20 05:09:17;;;;;;;;;;;;;;;9.66;100.00;92575.53;10506781;28;4828;-78
2023/10/20 05:14:20;;;;;;;;;;;;;;;9.64;100.00;92559.78;10509233;28;2775;-78
2023/10/20 05:19:23;;;;;;;;;;;;;;;9.63;100.00;92547.50;10509815;28;2602;-78
2023/10/20 05:24:25;;;;;;;;;;;;;;;9.54;100.00;92554.16;10510762;28;2686;-80
2023/10/20 05:29:28;;;;;;;;;;;;;;;9.55;100.00;92556.50;10511134;28;2573;-79
2023/10/20 05:34:31;;;;;;;;;;;;;;;9.47;100.00;92541.34;10510499;28;2570;-78
2023/10/20 05:39:34;;;;;;;;;;;;;;;9.43;100.00;92516.38;10512135;28;2919;-78
2023/10/20 05:44:37;;;;;;;;;;;;;;;9.36;100.00;92521.56;10492414;28;2573;-79
2023/10/20 05:49:40;;;;;;;;;;;;;;;9.29;100.00;92529.41;10512888;28;2824;-79
2023/10/20 05:54:45;;;;;;;;;;;;;;;9.30;100.00;92533.66;10510029;28;2650;-79
2023/10/20 05:59:48;;;;;;;;;;;;;;;9.36;100.00;92521.56;10513210;28;2550;-79
2023/10/20 06:04:50;;;;;;;;;;;;;;;9.41;100.00;92515.91;10509204;28;2858;-78
2023/10/20 06:09:53;;;;;;;;;;;;;;;9.40;100.00;92500.97;10519840;28;4725;-79
2023/10/20 06:14:56;;;;;;;;;;;;;;;9.40;100.00;92490.25;10512370;28;2636;-79
2023/10/20 06:20:03;;;;;;;;;;;;;;;9.35;100.00;92493.16;10517788;28;2644;-78
2023/10/20 06:25:10;;;;;;;;;;;;;;;9.33;100.00;92490.06;10523856;28;2764;-78
2023/10/20 06:30:19;;;;;;;;;;;;;;;9.42;100.00;92467.34;10518354;28;2649;-77
2023/10/20 06:35:28;;;;;;;;;;;;;;;9.37;100.00;92470.28;10522743;28;2518;-78
2023/10/20 06:40:31;;;;;;;;;;;;;;;9.40;100.00;92458.06;10516916;28;2684;-79
2023/10/20 06:45:34;;;;;;;;;;;;;;;9.48;100.00;92438.38;10512951;28;2946;-78
2023/10/20 06:50:36;;;;;;;;;;;;;;;9.51;100.00;92413.53;10517851;28;2621;-78
2023/10/20 06:55:39;;;;;;;;;;;;;;;9.52;100.00;92401.69;10518005;28;2900;-79
2023/10/20 07:01:02;;;;;;;;;;;;;;;9.59;100.00;92379.59;10498154;28;2594;-77
2023/10/20 07:06:09;;;;;;;;;;;;;;;9.55;100.00;92376.88;10515065;28;2856;-78
2023/10/20 07:11:12;;;;;;;;;;;;;;;9.67;100.00;92359.84;10516363;28;4673;-79
2023/10/20 07:16:15;;;;;;;;;;;;;;;9.76;100.00;92365.81;10513563;28;2788;-78
2023/10/20 07:21:17;;;;;;;;;;;;;;;9.75;100.00;92340.91;10513571;28;2578;-79
2023/10/20 07:26:20;;;;;;;;;;;;;;;9.93;100.00;92335.13;10514083;28;2686;-79
2023/10/20 07:31:22;;;;;;;;;;;;;;;10.04;100.00;92330.75;10512278;28;3165;-79
2023/10/20 07:36:25;;;;;;;;;;;;;;;10.03;100.00;92319.22;10518337;28;2889;-77
2023/10/20 07:41:27;;;;;;;;;;;;;;;10.22;100.00;92318.44;10501044;28;2762;-78
2023/10/20 07:46:31;;;;;;;;;;;;;;;10.18;100.00;92311.44;10514290;28;2681;-79
2023/10/20 07:51:33;;;;;;;;;;;;;;;10.34;100.00;92317.53;10513825;28;2868;-78
2023/10/20 07:56:36;;;;;;;;;;;;;;;10.35;100.00;92286.88;10511702;28;2626;-77
2023/10/20 08:01:38;;;;;;;;;;;;;;;10.70;100.00;92310.13;10518257;28;2777;-79
2023/10/20 08:06:41;;;;;;;;;;;;;;;10.95;100.00;92294.41;10516444;28;2821;-78
2023/10/20 08:11:45;;;;;;;;;;;;;;;11.20;100.00;92311.69;10511110;28;2985;-78
2023/10/20 08:16:49;;;;;;;;;;;;;;;11.43;100.00;92321.63;10512686;28;2627;-77
2023/10/20 08:21:51;;;;;;;;;;;;;;;12.03;100.00;92333.22;10514952;28;2884;-80
2023/10/20 08:26:54;;;;;;;;;;;;;;;12.38;100.00;92305.16;10512523;28;2758;-79
2023/10/20 08:31:57;;;;;;;;;;;;;;;12.63;100.00;92302.72;10509109;28;2732;-78
2023/10/20 08:37:02;;;;;;;;;;;;;;;13.15;100.00;92330.50;10517071;28;2581;-79
2023/10/20 08:42:04;;;;;;;;;;;;;;;13.50;100.00;92344.31;10514150;28;2566;-79
2023/10/20 08:47:07;;;;;;;;;;;;;;;13.45;100.00;92333.88;10495941;28;2668;-79
2023/10/20 08:52:10;;;;;;;;;;;;;;;13.89;100.00;92343.78;10513023;28;2631;-80
2023/10/20 08:57:12;;;;;;;;;;;;;;;13.76;100.00;92351.44;10515310;28;2684;-78
2023/10/20 09:02:15;;;;;;;;;;;;;;;14.41;100.00;92343.63;10513898;28;2679;-79
2023/10/20 09:07:17;;;;;;;;;;;;;;;14.63;100.00;92309.38;10514971;28;4697;-79
2023/10/20 09:12:20;;;;;;;;;;;;;;;14.54;100.00;92298.94;10512476;28;2612;-79
2023/10/20 09:17:23;;;;;;;;;;;;;;;14.80;100.00;92304.00;10505605;28;2869;-79
2023/10/20 09:22:25;;;;;;;;;;;;;;;15.29;100.00;92282.78;10509691;28;2604;-78
2023/10/20 09:27:28;;;;;;;;;;;;;;;15.72;100.00;92269.22;10505357;28;2776;-79
2023/10/20 09:32:30;;;;;;;;;;;;;;;15.91;100.00;92260.66;10510306;28;2585;-78
2023/10/20 09:37:33;;;;;;;;;;;;;;;16.02;100.00;92252.47;10509981;28;2671;-80
2023/10/20 09:42:36;;;;;;;;;;;;;;;16.14;100.00;92257.47;10509876;28;2772;-78
2023/10/20 09:47:39;;;;;;;;;;;;;;;16.35;100.00;92259.28;10495830;28;2530;-79
2023/10/20 09:52:42;;;;;;;;;;;;;;;16.80;100.00;92262.19;10515037;28;2525;-79
2023/10/20 09:57:46;;;;;;;;;;;;;;;17.23;100.00;92255.25;10505375;28;2694;-78
2023/10/20 10:02:49;;;;;;;;;;;;;;;18.03;100.00;92245.22;10506245;28;2688;-79
2023/10/20 10:07:52;;;;;;;;;;;;;;;18.53;100.00;92274.50;10507609;28;4658;-80
2023/10/20 10:12:54;;;;;;;;;;;;;;;18.75;100.00;92281.22;10507750;28;2976;-80
2023/10/20 10:17:57;;;;;;;;;;;;;;;19.35;100.00;92252.34;10504619;28;2796;-79
2023/10/20 10:23:02;;;;;;;;;;;;;;;19.35;100.00;92271.41;10512190;28;2803;-78
2023/10/20 10:28:05;;;;;;;;;;;;;;;19.60;100.00;92249.25;10488195;28;2787;-80
2023/10/20 10:33:08;;;;;;;;;;;;;;;19.59;100.00;92246.91;10505359;28;2660;-79
2023/10/20 10:38:11;;;;;;;;;;;;;;;20.09;100.00;92240.56;10507614;28;2657;-81
2023/10/20 10:43:13;;;;;;;;;;;;;;;20.69;100.00;92247.53;10509445;28;2667;-79
2023/10/20 10:48:16;;;;;;;;;;;;;;;20.66;100.00;92248.38;10509068;28;2672;-80
2023/10/20 10:53:19;;;;;;;;;;;;;;;20.95;100.00;92254.00;10507153;28;2549;-79
2023/10/20 10:58:23;;;;;;;;;;;;;;;20.66;100.00;92362.22;10509590;28;2574;-78
2023/10/20 11:03:25;;;;;;;;;;;;;;;20.09;100.00;92391.28;10507098;28;2759;-80
2023/10/20 11:08:28;;;;;;;;;;;;;;;20.71;100.00;92408.13;10515610;28;2977;-78
2023/10/20 11:13:32;;;;;;;;;;;;;;;21.09;100.00;92408.53;10495575;28;2769;-79
2023/10/20 11:18:35;;;;;;;;;;;;;;;21.17;100.00;92400.97;10514717;28;2668;-80
2023/10/20 11:23:38;;;;;;;;;;;;;;;21.34;100.00;92420.94;10486604;28;2792;-80
2023/10/20 11:28:40;;;;;;;;;;;;;;;21.16;100.00;92422.06;10509362;28;2655;-79
2023/10/20 11:33:42;;;;;;;;;;;;;;;21.35;100.00;92436.91;10508968;28;2597;-79
2023/10/20 11:38:45;;;;;;;;;;;;;;;21.41;100.00;92448.88;10515938;28;2589;-80
2023/10/20 11:43:48;;;;;;;;;;;;;;;21.49;100.00;92449.50;10506694;28;2621;-80
2023/10/20 11:48:50;;;;;;;;;;;;;;;21.17;100.00;92433.75;10494519;28;2689;-80
2023/10/20 11:53:53;;;;;;;;;;;;;;;20.91;100.00;92449.09;10513389;28;2737;-80
2023/10/20 11:58:55;;;;;;;;;;;;;;;20.89;100.00;92467.84;10507936;28;2585;-80
2023/10/20 12:03:58;;;;;;;;;;;;;;;20.87;100.00;92472.97;10497008;28;2822;-80
2023/10/20 12:09:00;;;;;;;;;;;;;;;21.17;100.00;92459.09;10511159;28;4752;-79
2023/10/20 12:14:03;;;;;;;;;;;;;;;21.45;100.00;92482.38;10510358;28;2530;-80
2023/10/20 12:19:06;;;;;;;;;;;;;;;21.07;100.00;92490.13;10514935;28;2601;-79
2023/10/20 12:24:09;;;;;;;;;;;;;;;20.77;100.00;92510.19;10510588;28;2526;-81
2023/10/20 12:29:12;;;;;;;;;;;;;;;20.60;100.00;92522.16;10504798;28;2843;-79
2023/10/20 12:34:15;;;;;;;;;;;;;;;20.27;100.00;92553.84;10510757;28;2952;-80
2023/10/20 12:39:18;;;;;;;;;;;;;;;20.15;100.00;92568.81;10516439;28;2901;-80
2023/10/20 12:44:21;;;;;;;;;;;;;;;20.20;100.00;92536.41;10509973;28;2624;-80
2023/10/20 12:49:23;;;;;;;;;;;;;;;20.07;100.00;92545.56;10523708;28;2892;-81
2023/10/20 12:54:26;;;;;;;;;;;;;;;19.78;100.00;92572.44;10508288;28;2577;-79
2023/10/20 12:59:28;;;;;;;;;;;;;;;19.59;100.00;92593.66;10511808;28;2912;-80
2023/10/20 13:04:31;;;;;;;;;;;;;;;19.41;100.00;92604.00;10509608;28;2728;-80
2023/10/20 13:09:34;;;;;;;;;;;;;;;19.36;100.00;92616.09;10510838;28;4888;-80
2023/10/20 13:14:36;;;;;;;;;;;;;;;19.34;100.00;92634.00;10506222;28;2612;-80
2023/10/20 13:19:39;;;;;;;;;;;;;;;19.42;100.00;92660.00;10507783;28;2694;-80
2023/10/20 13:24:41;;;;;;;;;;;;;;;19.48;100.00;92655.66;10503842;28;2669;-80
2023/10/20 13:29:44;;;;;;;;;;;;;;;19.30;100.00;92663.25;10509590;28;2603;-80
2023/10/20 13:34:47;;;;;;;;;;;;;;;18.88;100.00;92660.47;10506553;28;2666;-80
2023/10/20 13:39:49;;;;;;;;;;;;;;;18.94;100.00;92685.31;10505479;28;2617;-81
2023/10/20 13:44:52;;;;;;;;;;;;;;;18.89;100.00;92691.19;10512454;28;2688;-81
2023/10/20 13:49:54;;;;;;;;;;;;;;;18.82;100.00;92686.56;10508086;28;2774;-80
2023/10/20 13:54:57;;;;;;;;;;;;;;;18.68;100.00;92686.69;10510222;28;2590;-81
2023/10/20 14:00:00;;;;;;;;;;;;;;;18.51;100.00;92692.97;10506883;28;3100;-82
2023/10/20 14:05:02;;;;;;;;;;;;;;;18.44;100.00;92695.72;10505929;28;2633;-79
2023/10/20 14:10:05;;;;;;;;;;;;;;;18.07;100.00;92687.00;10516887;28;4626;-80
2023/10/20 14:15:08;;;;;;;;;;;;;;;17.73;100.00;92702.25;10523255;28;2824;-80
2023/10/20 14:20:11;;;;;;;;;;;;;;;17.63;100.00;92719.34;10513524;28;3219;-79
2023/10/20 14:25:13;;;;;;;;;;;;;;;17.63;100.00;92728.28;10507070;28;2936;-81
2023/10/20 14:30:16;;;;;;;;;;;;;;;17.73;100.00;92749.22;10517426;28;2671;-81
2023/10/20 14:35:18;;;;;;;;;;;;;;;17.80;100.00;92768.22;10517782;28;2748;-81
2023/10/20 14:40:20;;;;;;;;;;;;;;;17.73;100.00;92787.25;10513593;28;2598;-80
2023/10/20 14:45:23;;;;;;;;;;;;;;;17.62;100.00;92789.16;10512504;28;2774;-80
2023/10/20 14:50:26;;;;;;;;;;;;;;;17.62;100.00;92794.59;10517411;28;2642;-81
2023/10/20 14:55:28;;;;;;;;;;;;;;;17.76;100.00;92772.91;10521221;28;2565;-82
2023/10/20 15:00:31;;;;;;;;;;;;;;;17.67;100.00;92769.78;10507608;28;2602;-80
2023/10/20 15:05:34;;;;;;;;;;;;;;;17.55;100.00;92791.91;10517593;28;2586;-81
2023/10/20 15:10:36;;;;;;;;;;;;;;;17.51;100.00;92810.94;10514541;28;4563;-81
2023/10/20 15:15:39;;;;;;;;;;;;;;;17.38;100.00;92820.63;10518492;28;2617;-82
2023/10/20 15:20:42;;;;;;;;;;;;;;;17.20;100.00;92861.34;10513244;28;2640;-81
2023/10/20 15:25:44;;;;;;;;;;;;;;;17.03;100.00;92862.06;10513956;28;2997;-81
2023/10/20 15:30:47;;;;;;;;;;;;;;;16.93;100.00;92869.03;10513865;28;2607;-82
2023/10/20 15:35:49;;;;;;;;;;;;;;;16.85;100.00;92883.72;10516676;28;2608;-82
2023/10/20 15:40:52;;;;;;;;;;;;;;;16.62;100.00;92885.97;10512174;28;2850;-81
2023/10/20 15:45:54;;;;;;;;;;;;;;;16.56;100.00;92914.59;10516736;28;2645;-81
2023/10/20 15:50:57;;;;;;;;;;;;;;;16.39;100.00;92913.34;10510197;28;2541;-80
2023/10/20 15:55:59;;;;;;;;;;;;;;;16.21;100.00;92956.59;10488987;28;2587;-80
2023/10/20 16:01:04;;;;;;;;;;;;;;;16.10;100.00;92947.63;10511047;28;2554;-80
2023/10/20 16:06:10;;;;;;;;;;;;;;;16.20;100.00;92944.19;10516434;28;2609;-81
2023/10/20 16:11:13;;;;;;;;;;;;;;;15.94;100.00;92953.31;10515311;28;4770;-79
2023/10/20 16:16:23;;;;;;;;;;;;;;;15.74;100.00;92958.19;10513910;28;2934;-81
2023/10/20 16:21:25;;;;;;;;;;;;;;;15.67;100.00;92953.50;10525657;28;2933;-81
2023/10/20 16:26:28;;;;;;;;;;;;;;;15.55;100.00;92971.91;10514511;28;2601;-80
2023/10/20 16:31:30;;;;;;;;;;;;;;;15.55;100.00;92983.50;10492428;28;2561;-80
2023/10/20 16:36:33;;;;;;;;;;;;;;;15.49;100.00;93001.25;10511034;28;2585;-80
2023/10/20 16:41:36;;;;;;;;;;;;;;;15.37;100.00;93021.22;10510694;28;2594;-82
2023/10/20 16:46:40;;;;;;;;;;;;;;;15.37;100.00;93021.22;10507456;28;2942;-82
2023/10/20 16:51:43;;;;;;;;;;;;;;;15.32;100.00;93005.31;10513111;28;2617;-82
2023/10/20 16:56:46;;;;;;;;;;;;;;;15.25;100.00;93001.75;10510478;28;2628;-81
2023/10/20 17:01:49;;;;;;;;;;;;;;;15.15;100.00;93041.09;10513503;28;2777;-81
2023/10/20 17:06:51;;;;;;;;;;;;;;;15.09;100.00;93021.69;10510081;28;2896;-81
2023/10/20 17:11:54;;;;;;;;;;;;;;;15.09;100.00;93026.31;10514147;28;5063;-81
2023/10/20 17:16:56;;;;;;;;;;;;;;;14.99;100.00;93060.19;10508916;28;2675;-79
2023/10/20 17:21:59;;;;;;;;;;;;;;;14.93;100.00;93106.88;10509905;28;2614;-81
2023/10/20 17:27:02;;;;;;;;;;;;;;;14.90;100.00;93130.03;10508590;28;2820;-80
2023/10/20 17:32:06;;;;;;;;;;;;;;;14.83;100.00;93132.63;10497080;28;2828;-80
2023/10/20 17:37:09;;;;;;;;;;;;;;;14.85;100.00;93124.94;10512017;28;2686;-82
2023/10/20 17:42:11;;;;;;;;;;;;;;;14.73;100.00;93139.44;10493563;28;2597;-81
2023/10/20 17:47:14;;;;;;;;;;;;;;;14.72;100.00;93147.91;10492364;28;2643;-82
2023/10/20 17:52:17;;;;;;;;;;;;;;;14.65;100.00;93147.81;10509219;28;2530;-81
2023/10/20 17:57:19;;;;;;;;;;;;;;;14.59;100.00;93167.03;10507662;28;2546;-81
2023/10/20 18:02:22;;;;;;;;;;;;;;;14.57;100.00;93176.66;10499359;28;2533;-80
2023/10/20 18:07:24;;;;;;;;;;;;;;;14.52;100.00;93185.06;10516490;28;4582;-80
2023/10/20 18:12:27;;;;;;;;;;;;;;;14.49;100.00;93202.75;10518103;28;2562;-80
2023/10/20 18:17:29;;;;;;;;;;;;;;;14.43;100.00;93209.56;10516567;28;2901;-80
2023/10/20 18:22:32;;;;;;;;;;;;;;;14.41;100.00;93233.47;10517836;28;2634;-81
2023/10/20 18:27:35;;;;;;;;;;;;;;;14.42;100.00;93231.56;10520973;28;2832;-80
2023/10/20 18:32:37;;;;;;;;;;;;;;;14.37;100.00;93219.13;10516497;28;2573;-79
2023/10/20 18:37:40;;;;;;;;;;;;;;;14.32;100.00;93216.72;10516454;28;2811;-81
2023/10/20 18:42:43;;;;;;;;;;;;;;;14.29;100.00;93226.31;10511621;28;2930;-80
2023/10/20 18:47:45;;;;;;;;;;;;;;;14.22;100.00;93245.09;10517891;28;2534;-82
2023/10/20 18:52:48;;;;;;;;;;;;;;;14.23;100.00;93246.66;10519528;28;2572;-80
2023/10/20 18:57:50;;;;;;;;;;;;;;;14.23;100.00;93240.47;10511847;28;2878;-80
2023/10/20 19:02:53;;;;;;;;;;;;;;;14.17;100.00;93248.09;10510801;28;2796;-81
2023/10/20 19:07:56;;;;;;;;;;;;;;;14.17;100.00;93256.19;10514301;28;2720;-81
2023/10/20 19:12:58;;;;;;;;;;;;;;;14.11;100.00;93246.81;10500138;28;2558;-79
2023/10/20 19:18:00;;;;;;;;;;;;;;;14.15;100.00;93276.63;10493358;28;2717;-81
2023/10/20 19:23:05;;;;;;;;;;;;;;;14.11;100.00;93268.44;10517386;28;2990;-80
2023/10/20 19:28:08;;;;;;;;;;;;;;;14.11;100.00;93290.03;10515958;28;2776;-81
2023/10/20 19:33:10;;;;;;;;;;;;;;;14.10;100.00;93277.69;10520328;28;2575;-81
2023/10/20 19:38:12;;;;;;;;;;;;;;;14.10;100.00;93279.59;10516618;28;2553;-82
2023/10/20 19:43:15;;;;;;;;;;;;;;;14.06;100.00;93274.13;10523778;28;2534;-80
2023/10/20 19:48:17;;;;;;;;;;;;;;;14.03;100.00;93275.63;10537793;28;2753;-80
2023/10/20 19:53:20;;;;;;;;;;;;;;;14.06;100.00;93271.44;10532961;28;2605;-81
2023/10/20 19:58:23;;;;;;;;;;;;;;;14.00;100.00;93265.53;10531990;28;2642;-83
2023/10/20 20:03:25;;;;;;;;;;;;;;;13.98;100.00;93284.00;10540185;28;2760;-82
2023/10/20 20:08:29;;;;;;;;;;;;;;;13.94;100.00;93275.06;10543000;28;4754;-80
2023/10/20 20:13:31;;;;;;;;;;;;;;;13.97;100.00;93277.03;10518478;28;2566;-81
2023/10/20 20:18:33;;;;;;;;;;;;;;;13.95;100.00;93278.53;10515139;28;2554;-80
2023/10/20 20:23:36;;;;;;;;;;;;;;;13.95;100.00;93284.72;10507567;28;2546;-80
2023/10/20 20:28:40;;;;;;;;;;;;;;;13.95;100.00;93251.53;10497729;28;2811;-81
2023/10/20 20:33:42;;;;;;;;;;;;;;;13.85;100.00;93263.66;10516790;28;2561;-82
2023/10/20 20:38:46;;;;;;;;;;;;;;;13.81;100.00;93254.72;10508566;28;2596;-80
2023/10/20 20:43:49;;;;;;;;;;;;;;;13.74;100.00;93249.97;10508305;28;2711;-79
2023/10/20 20:48:52;;;;;;;;;;;;;;;13.65;100.00;93245.91;10497161;28;2548;-82
2023/10/20 20:53:55;;;;;;;;;;;;;;;13.49;100.00;93244.03;10507100;28;2732;-80
2023/10/20 20:58:57;;;;;;;;;;;;;;;13.44;100.00;93230.81;10504987;28;2652;-80
2023/10/20 21:04:01;;;;;;;;;;;;;;;13.32;100.00;93244.44;10511681;28;3248;-80
2023/10/20 21:09:04;;;;;;;;;;;;;;;13.15;100.00;93236.69;10509548;28;4625;-80
2023/10/20 21:14:07;;;;;;;;;;;;;;;12.99;100.00;93236.72;10512866;28;2678;-81
2023/10/20 21:19:09;;;;;;;;;;;;;;;12.98;100.00;93232.47;10505428;28;2842;-80
2023/10/20 21:24:12;;;;;;;;;;;;;;;12.97;100.00;93234.34;10510690;28;2839;-80
2023/10/20 21:29:14;;;;;;;;;;;;;;;13.07;100.00;93218.78;10506125;28;2712;-80
2023/10/20 21:34:17;;;;;;;;;;;;;;;13.07;100.00;93222.25;10504772;28;2664;-81
2023/10/20 21:39:21;;;;;;;;;;;;;;;12.97;100.00;93218.19;10507116;28;2597;-80
2023/10/20 21:44:24;;;;;;;;;;;;;;;12.80;100.00;93215.88;10510117;28;2866;-81
2023/10/20 21:49:27;;;;;;;;;;;;;;;12.69;100.00;93225.59;10515057;28;2679;-81
2023/10/20 21:54:30;;;;;;;;;;;;;;;12.54;100.00;93224.47;10509558;28;2674;-81
2023/10/20 21:59:32;;;;;;;;;;;;;;;12.43;100.00;93229.59;10512845;28;2554;-82
2023/10/20 22:04:35;;;;;;;;;;;;;;;12.33;100.00;93246.25;10510289;28;2571;-82
2023/10/20 22:09:37;;;;;;;;;;;;;;;12.23;100.00;93254.88;10511977;28;4745;-80
2023/10/20 22:14:55;;;;;;;;;;;;;;;12.11;100.00;93257.63;10510789;28;2603;-81
2023/10/20 22:19:58;;;;;;;;;;;;;;;12.03;100.00;93269.31;10503619;28;2665;-80
2023/10/20 22:25:00;;;;;;;;;;;;;;;11.87;100.00;93277.34;10511743;28;2624;-82
2023/10/20 22:30:03;;;;;;;;;;;;;;;11.76;100.00;93281.59;10508781;28;2691;-80
2023/10/20 22:35:05;;;;;;;;;;;;;;;11.71;100.00;93277.25;10509139;28;2577;-79
2023/10/20 22:40:09;;;;;;;;;;;;;;;11.67;100.00;93287.13;10510256;28;2609;-80
2023/10/20 22:45:11;;;;;;;;;;;;;;;11.66;100.00;93296.31;10509919;28;2809;-82
2023/10/20 22:50:17;;;;;;;;;;;;;;;11.66;100.00;93301.72;10506652;28;2593;-81
2023/10/20 22:55:20;;;;;;;;;;;;;;;11.67;100.00;93303.28;10513112;28;2546;-81
2023/10/20 23:00:23;;;;;;;;;;;;;;;11.65;100.00;93302.84;10513262;28;2998;-80
2023/10/20 23:05:25;;;;;;;;;;;;;;;11.64;100.00;93307.44;10519714;28;2534;-81
2023/10/20 23:10:29;;;;;;;;;;;;;;;11.63;100.00;93329.28;10513574;28;4705;-80
2023/10/20 23:15:32;;;;;;;;;;;;;;;11.54;100.00;93339.41;10518446;28;2548;-80
2023/10/20 23:20:35;;;;;;;;;;;;;;;11.48;100.00;93340.75;10517462;28;2550;-81
2023/10/20 23:25:37;;;;;;;;;;;;;;;11.34;100.00;93347.25;10512499;28;2837;-82
2023/10/20 23:30:40;;;;;;;;;;;;;;;11.30;100.00;93345.56;10515651;28;2660;-80
2023/10/20 23:35:42;;;;;;;;;;;;;;;11.23;100.00;93351.50;10517421;28;2558;-81
2023/10/20 23:40:45;;;;;;;;;;;;;;;11.15;100.00;93365.09;10513809;28;2700;-81
2023/10/20 23:45:47;;;;;;;;;;;;;;;11.02;100.00;93367.75;10512538;28;2550;-80
2023/10/20 23:50:50;;;;;;;;;;;;;;;10.91;100.00;93372.00;10516992;28;2621;-81
2023/10/20 23:55:53;;;;;;;;;;;;;;;10.87;100.00;93381.81;10518943;28;2584;-82
